Time;durP1;ratioP1;P1;durP2;ratioP2;P2;SDS_P1;SDS_P2;PMS_P1;PMS_P2;Temp;Humidity;BMP_temperature;BMP_pressure;BME280_temperature;BME280_humidity;BME280_pressure;Samples;Min_cycle;Max_cycle;Signal;HPM_P1;HPM_P2
2022/09/03 00:00:08;;;;;;;;;;;;;;;18.12;62.32;100451.56;5417777;32;36869;-76
2022/09/03 00:03:25;;;;;;;;;;;;;;;17.62;64.81;100455.00;5366732;32;34978;-77
2022/09/03 00:06:30;;;;;;;;;;;;;;;18.09;63.02;100451.78;5382092;32;43216;-76
2022/09/03 00:09:38;;;;;;;;;;;;;;;17.66;64.23;100456.50;5410893;32;34724;-78
2022/09/03 00:12:41;;;;;;;;;;;;;;;18.70;59.93;100453.78;5396481;32;35618;-78
2022/09/03 00:15:43;;;;;;;;;;;;;;;19.43;55.87;100451.03;5402683;32;35563;-76
2022/09/03 00:18:53;;;;;;;;;;;;;;;18.87;58.18;100453.38;5373974;32;35146;-77
2022/09/03 00:21:56;;;;;;;;;;;;;;;18.29;60.75;100462.81;5403664;32;35309;-77
2022/09/03 00:24:59;;;;;;;;;;;;;;;17.89;62.26;100462.09;5408320;32;44875;-77
2022/09/03 00:28:02;;;;;;;;;;;;;;;18.95;58.11;100448.38;5401092;32;35971;-78
2022/09/03 00:31:12;;;;;;;;;;;;;;;19.12;56.59;100447.97;5405837;32;37241;-78
2022/09/03 00:34:31;;;;;;;;;;;;;;;19.01;57.16;100449.75;5403645;32;34879;-78
2022/09/03 00:37:33;;;;;;;;;;;;;;;19.01;56.86;100445.28;5405348;32;43102;-78
2022/09/03 00:40:42;;;;;;;;;;;;;;;18.98;57.25;100447.28;5394441;32;34867;-78
2022/09/03 00:43:45;;;;;;;;;;;;;;;18.82;57.76;100447.56;5383770;32;35456;-76
2022/09/03 00:46:55;;;;;;;;;;;;;;;19.10;56.54;100449.91;5402567;32;34832;-78
2022/09/03 00:50:11;;;;;;;;;;;;;;;19.06;56.79;100453.75;5379311;32;43505;-76
2022/09/03 00:53:13;;;;;;;;;;;;;;;18.74;57.89;100453.47;5415548;32;35754;-75
2022/09/03 00:56:24;;;;;;;;;;;;;;;19.11;56.67;100453.41;5383447;32;34941;-78
2022/09/03 00:59:29;;;;;;;;;;;;;;;19.11;56.71;100450.75;5386182;32;34427;-77
2022/09/03 01:02:32;;;;;;;;;;;;;;;19.04;56.82;100457.50;5375508;32;44545;-77
2022/09/03 01:05:47;;;;;;;;;;;;;;;19.19;56.12;100441.25;5375193;32;36401;-78
2022/09/03 01:08:56;;;;;;;;;;;;;;;18.83;57.26;100457.25;5416558;32;35607;-77
2022/09/03 01:12:00;;;;;;;;;;;;;;;18.91;57.17;100461.06;5400233;32;45432;-78
2022/09/03 01:15:08;;;;;;;;;;;;;;;18.93;57.45;100456.50;5381839;32;36557;-77
2022/09/03 01:18:13;;;;;;;;;;;;;;;18.78;58.33;100456.72;5397047;32;35784;-75
2022/09/03 01:21:33;;;;;;;;;;;;;;;18.85;58.05;100469.47;5385186;32;35398;-76
2022/09/03 01:24:58;;;;;;;;;;;;;;;18.27;60.46;100475.41;5404888;32;44690;-77
2022/09/03 01:28:13;;;;;;;;;;;;;;;18.15;60.68;100477.09;5391336;32;44564;-77
2022/09/03 01:31:18;;;;;;;;;;;;;;;17.77;63.01;100475.25;5391198;32;35034;-76
2022/09/03 01:34:32;;;;;;;;;;;;;;;17.62;63.41;100478.06;5415160;32;35122;-77
2022/09/03 01:37:46;;;;;;;;;;;;;;;18.13;61.68;100477.22;5397935;32;45172;-77
2022/09/03 01:40:57;;;;;;;;;;;;;;;17.38;64.29;100480.53;5409160;32;34913;-76
2022/09/03 01:44:05;;;;;;;;;;;;;;;17.10;65.47;100476.19;5398426;32;45246;-78
2022/09/03 01:47:22;;;;;;;;;;;;;;;17.31;64.39;100480.94;5387691;32;34531;-76
2022/09/03 01:50:25;;;;;;;;;;;;;;;17.14;64.21;100477.69;5398073;32;35991;-77
2022/09/03 01:53:30;;;;;;;;;;;;;;;17.44;63.57;100474.81;5382747;32;43868;-76
2022/09/03 01:56:35;;;;;;;;;;;;;;;17.33;63.81;100478.19;5398057;32;32304;-76
2022/09/03 01:59:46;;;;;;;;;;;;;;;18.26;60.10;100477.22;5382575;32;35006;-76
2022/09/03 02:02:50;;;;;;;;;;;;;;;18.30;59.01;100473.38;5377055;32;34578;-76
2022/09/03 02:05:52;;;;;;;;;;;;;;;18.18;59.87;100482.22;5409326;32;35583;-75
2022/09/03 02:08:54;;;;;;;;;;;;;;;18.35;59.44;100481.91;5387400;32;35519;-76
2022/09/03 02:12:02;;;;;;;;;;;;;;;18.36;59.58;100486.28;5397341;32;36296;-78
2022/09/03 02:15:06;;;;;;;;;;;;;;;17.91;61.87;100486.78;5388980;32;42849;-78
2022/09/03 02:18:10;;;;;;;;;;;;;;;18.20;60.82;100495.41;5417257;32;34434;-77
2022/09/03 02:21:17;;;;;;;;;;;;;;;18.12;61.06;100490.63;5395777;32;34912;-77
2022/09/03 02:24:18;;;;;;;;;;;;;;;17.33;64.26;100494.13;5387886;32;34970;-77
2022/09/03 02:27:20;;;;;;;;;;;;;;;17.06;64.91;100491.44;5399793;32;35688;-78
2022/09/03 02:30:22;;;;;;;;;;;;;;;16.66;66.69;100501.91;5391173;32;34902;-78
2022/09/03 02:33:24;;;;;;;;;;;;;;;17.29;65.25;100497.94;5401443;32;34434;-77
2022/09/03 02:36:28;;;;;;;;;;;;;;;16.89;65.73;100489.88;5386114;32;34266;-77
2022/09/03 02:39:29;;;;;;;;;;;;;;;17.05;65.66;100487.09;5401100;32;44528;-76
2022/09/03 02:42:35;;;;;;;;;;;;;;;16.72;66.55;100493.59;5386790;32;35238;-76
2022/09/03 02:45:37;;;;;;;;;;;;;;;17.90;61.91;100493.03;5393991;32;35286;-75
2022/09/03 02:48:39;;;;;;;;;;;;;;;17.06;65.18;100496.75;5421564;32;35215;-75
2022/09/03 02:51:42;;;;;;;;;;;;;;;16.81;66.87;100496.62;5386266;32;35372;-77
2022/09/03 02:54:44;;;;;;;;;;;;;;;17.49;63.57;100494.81;5417085;32;34764;-76
2022/09/03 02:57:46;;;;;;;;;;;;;;;16.66;66.94;100496.59;5377778;32;34341;-78
2022/09/03 03:00:48;;;;;;;;;;;;;;;16.92;65.97;100495.00;5406612;32;34490;-77
2022/09/03 03:03:50;;;;;;;;;;;;;;;17.35;64.39;100499.34;5367930;32;35451;-76
2022/09/03 03:06:52;;;;;;;;;;;;;;;17.90;62.11;100493.03;5389843;32;35634;-77
2022/09/03 03:09:54;;;;;;;;;;;;;;;17.84;61.73;100489.84;5397852;32;35452;-77
2022/09/03 03:12:56;;;;;;;;;;;;;;;18.07;60.58;100495.41;5382442;32;34694;-78
2022/09/03 03:15:58;;;;;;;;;;;;;;;17.70;62.20;100497.00;5411071;32;44457;-77
2022/09/03 03:19:00;;;;;;;;;;;;;;;16.76;65.53;100496.91;5392411;32;34783;-78
2022/09/03 03:22:02;;;;;;;;;;;;;;;17.24;64.31;100495.56;5400700;32;34343;-75
2022/09/03 03:25:04;;;;;;;;;;;;;;;17.41;63.00;100498.94;5410830;32;34955;-76
2022/09/03 03:28:06;;;;;;;;;;;;;;;16.29;68.23;100503.31;5403017;32;35549;-76
2022/09/03 03:31:10;;;;;;;;;;;;;;;17.36;64.44;100498.37;5409088;32;35263;-78
2022/09/03 03:34:12;;;;;;;;;;;;;;;18.20;59.94;100511.37;5383444;32;34640;-76
2022/09/03 03:37:14;;;;;;;;;;;;;;;16.27;66.15;100518.47;5398581;32;35328;-78
2022/09/03 03:40:16;;;;;;;;;;;;;;;16.18;67.80;100517.25;5375828;32;35724;-78
2022/09/03 03:43:17;;;;;;;;;;;;;;;15.90;69.18;100515.37;5412519;32;34872;-76
2022/09/03 03:46:20;;;;;;;;;;;;;;;16.13;68.17;100514.00;5400053;32;34784;-76
2022/09/03 03:49:22;;;;;;;;;;;;;;;16.53;66.73;100514.22;5385696;32;35786;-76
2022/09/03 03:52:25;;;;;;;;;;;;;;;16.59;66.98;100515.66;5394723;32;34873;-79
2022/09/03 03:55:27;;;;;;;;;;;;;;;16.71;65.51;100520.25;5401563;32;35948;-77
2022/09/03 03:58:31;;;;;;;;;;;;;;;16.53;66.69;100519.53;5398820;32;44573;-78
2022/09/03 04:01:33;;;;;;;;;;;;;;;16.82;65.32;100522.22;5391329;32;34661;-77
2022/09/03 04:04:35;;;;;;;;;;;;;;;17.35;63.42;100515.28;5375448;32;36574;-75
2022/09/03 04:07:37;;;;;;;;;;;;;;;17.36;62.78;100512.53;5404196;32;35815;-77
2022/09/03 04:10:39;;;;;;;;;;;;;;;17.28;63.40;100520.16;5379190;32;34998;-78
2022/09/03 04:13:42;;;;;;;;;;;;;;;17.62;62.21;100520.59;5408129;32;35069;-76
2022/09/03 04:16:46;;;;;;;;;;;;;;;17.12;64.10;100532.69;5398679;32;35107;-76
2022/09/03 04:19:49;;;;;;;;;;;;;;;17.28;63.53;100531.63;5401518;32;34905;-78
2022/09/03 04:22:51;;;;;;;;;;;;;;;17.33;63.74;100536.66;5382749;32;34850;-77
2022/09/03 04:25:53;;;;;;;;;;;;;;;17.60;62.50;100541.97;5395142;32;34818;-76
2022/09/03 04:28:55;;;;;;;;;;;;;;;17.57;62.28;100539.47;5385517;32;35830;-78
2022/09/03 04:35:22;;;;;;;;;;;;;;;17.77;61.81;100538.19;5392139;32;34895;-78
2022/09/03 04:38:24;;;;;;;;;;;;;;;17.78;61.68;100538.13;5401826;32;35057;-76
2022/09/03 04:41:26;;;;;;;;;;;;;;;16.28;68.00;100540.56;5404440;32;34780;-77
2022/09/03 04:44:28;;;;;;;;;;;;;;;17.21;64.78;100543.59;5406272;32;43561;-78
2022/09/03 04:47:30;;;;;;;;;;;;;;;17.90;61.60;100546.22;5384751;32;34289;-76
2022/09/03 04:50:34;;;;;;;;;;;;;;;17.09;64.10;100555.00;5405329;32;34424;-78
2022/09/03 04:53:37;;;;;;;;;;;;;;;15.72;70.77;100560.66;5387419;32;35101;-76
2022/09/03 04:56:39;;;;;;;;;;;;;;;15.93;69.64;100554.12;5408168;32;35413;-78
2022/09/03 04:59:41;;;;;;;;;;;;;;;16.14;69.02;100562.59;5382966;32;34833;-77
2022/09/03 05:02:45;;;;;;;;;;;;;;;16.55;67.16;100562.78;5381341;32;34750;-76
2022/09/03 05:05:51;;;;;;;;;;;;;;;17.44;64.20;100555.37;5402263;32;36250;-77
2022/09/03 05:08:54;;;;;;;;;;;;;;;17.84;62.54;100555.47;5395611;32;37558;-75
2022/09/03 05:11:56;;;;;;;;;;;;;;;18.03;61.03;100547.09;5412235;32;34904;-76
2022/09/03 05:14:58;;;;;;;;;;;;;;;18.92;57.81;100557.78;5375864;32;44730;-75
2022/09/03 05:18:01;;;;;;;;;;;;;;;19.16;56.87;100550.69;5408556;32;35445;-76
2022/09/03 05:21:06;;;;;;;;;;;;;;;19.71;54.72;100551.19;5394296;32;35035;-76
2022/09/03 05:24:10;;;;;;;;;;;;;;;21.25;50.02;100554.31;5396758;32;35093;-78
2022/09/03 05:27:13;;;;;;;;;;;;;;;20.94;51.29;100551.44;5403387;32;35091;-76
2022/09/03 05:30:15;;;;;;;;;;;;;;;20.63;51.99;100549.50;5398384;32;34784;-76
2022/09/03 05:33:16;;;;;;;;;;;;;;;21.50;49.22;100540.66;5415955;32;34722;-78
2022/09/03 05:36:22;;;;;;;;;;;;;;;21.32;49.58;100542.19;5391668;32;34954;-75
2022/09/03 05:39:24;;;;;;;;;;;;;;;20.53;51.93;100539.53;5406851;32;35221;-77
2022/09/03 05:42:26;;;;;;;;;;;;;;;20.38;53.05;100548.69;5385051;32;35429;-77
2022/09/03 05:45:30;;;;;;;;;;;;;;;20.70;52.44;100550.72;5397848;32;44664;-79
2022/09/03 05:48:33;;;;;;;;;;;;;;;21.23;50.38;100542.91;5408484;32;34782;-78
2022/09/03 05:51:35;;;;;;;;;;;;;;;21.99;48.29;100539.25;5390892;32;35993;-77
2022/09/03 05:54:38;;;;;;;;;;;;;;;21.67;48.86;100547.31;5411502;32;34794;-76
2022/09/03 05:57:40;;;;;;;;;;;;;;;22.20;48.27;100549.16;5393051;32;35256;-76
2022/09/03 06:00:42;;;;;;;;;;;;;;;21.57;49.03;100552.56;5410047;32;34189;-77
2022/09/03 06:03:44;;;;;;;;;;;;;;;21.57;49.50;100555.22;5365506;32;35295;-78
2022/09/03 06:06:46;;;;;;;;;;;;;;;21.62;48.81;100561.06;5399353;32;35279;-76
2022/09/03 06:09:49;;;;;;;;;;;;;;;22.60;46.80;100558.13;5408364;32;35939;-77
2022/09/03 06:12:51;;;;;;;;;;;;;;;22.43;46.54;100556.06;5393567;32;35593;-77
2022/09/03 06:15:56;;;;;;;;;;;;;;;21.65;48.47;100554.63;5408528;32;35434;-79
2022/09/03 06:18:58;;;;;;;;;;;;;;;22.46;46.38;100555.78;5392752;32;43127;-77
2022/09/03 06:22:00;;;;;;;;;;;;;;;22.78;45.70;100552.16;5401054;32;35534;-78
2022/09/03 06:25:02;;;;;;;;;;;;;;;22.89;45.02;100541.38;5375906;32;35497;-76
2022/09/03 06:28:07;;;;;;;;;;;;;;;22.65;45.47;100544.34;5385398;32;36324;-76
2022/09/03 06:31:10;;;;;;;;;;;;;;;22.39;46.41;100543.91;5409716;32;35658;-78
2022/09/03 06:34:12;;;;;;;;;;;;;;;26.75;36.44;100540.06;5388491;32;35243;-76
2022/09/03 06:37:14;;;;;;;;;;;;;;;26.87;35.78;100533.38;5403576;32;34730;-78
2022/09/03 06:40:21;;;;;;;;;;;;;;;26.75;35.78;100543.59;5394930;32;35020;-76
2022/09/03 06:43:23;;;;;;;;;;;;;;;25.47;38.70;100529.75;5405473;32;35187;-76
2022/09/03 06:46:25;;;;;;;;;;;;;;;24.75;39.87;100526.88;5394833;32;35986;-77
2022/09/03 06:49:27;;;;;;;;;;;;;;;24.81;39.33;100531.66;5389788;32;44769;-76
2022/09/03 06:52:29;;;;;;;;;;;;;;;24.85;39.99;100524.13;5405183;32;34898;-77
2022/09/03 06:55:31;;;;;;;;;;;;;;;25.03;39.26;100516.94;5402559;32;35721;-77
2022/09/03 06:58:38;;;;;;;;;;;;;;;25.52;38.69;100517.53;5411703;32;35028;-78
2022/09/03 07:01:42;;;;;;;;;;;;;;;26.40;36.65;100523.84;5380267;32;37051;-77
2022/09/03 07:04:48;;;;;;;;;;;;;;;25.91;38.19;100522.63;5379343;32;34970;-76
2022/09/03 07:07:49;;;;;;;;;;;;;;;24.73;40.00;100530.66;5406292;32;34486;-76
2022/09/03 07:10:52;;;;;;;;;;;;;;;25.69;37.96;100520.34;5405730;32;34703;-78
2022/09/03 07:13:54;;;;;;;;;;;;;;;25.58;38.79;100524.16;5421983;32;35325;-79
2022/09/03 07:16:56;;;;;;;;;;;;;;;27.21;35.27;100523.41;5386670;32;34833;-76
2022/09/03 07:19:58;;;;;;;;;;;;;;;25.67;37.03;100521.34;5402453;32;44666;-80
2022/09/03 07:23:00;;;;;;;;;;;;;;;27.99;32.69;100512.22;5386562;32;35570;-76
2022/09/03 07:26:03;;;;;;;;;;;;;;;25.46;36.62;100517.28;5402468;32;35357;-76
2022/09/03 07:29:10;;;;;;;;;;;;;;;29.08;30.63;100511.63;5405912;32;35199;-76
2022/09/03 07:32:12;;;;;;;;;;;;;;;28.45;31.45;100512.50;5396721;32;36388;-77
2022/09/03 07:35:14;;;;;;;;;;;;;;;29.45;29.96;100501.94;5415872;32;34952;-78
2022/09/03 07:38:17;;;;;;;;;;;;;;;31.04;26.72;100504.47;5391182;32;35711;-78
2022/09/03 07:41:20;;;;;;;;;;;;;;;27.51;32.11;100505.75;5405973;32;34901;-78
2022/09/03 07:44:29;;;;;;;;;;;;;;;28.94;29.80;100501.56;5405439;32;45026;-77
2022/09/03 07:47:33;;;;;;;;;;;;;;;29.06;30.32;100513.69;5387704;32;34757;-77
2022/09/03 07:50:38;;;;;;;;;;;;;;;28.15;31.24;100516.78;5408650;32;35289;-76
2022/09/03 07:53:40;;;;;;;;;;;;;;;27.67;32.93;100513.03;5388446;32;35470;-77
2022/09/03 07:56:41;;;;;;;;;;;;;;;30.07;28.70;100509.94;5392474;32;33852;-76
2022/09/03 07:59:43;;;;;;;;;;;;;;;30.59;26.84;100516.38;5395180;32;34926;-76
2022/09/03 08:02:45;;;;;;;;;;;;;;;28.84;29.77;100523.38;5379815;32;34281;-76
2022/09/03 08:05:47;;;;;;;;;;;;;;;26.85;33.49;100530.81;5376387;32;36676;-77
2022/09/03 08:08:55;;;;;;;;;;;;;;;29.36;29.41;100516.53;5394052;32;34815;-76
2022/09/03 08:12:05;;;;;;;;;;;;;;;30.04;28.72;100515.72;5407212;32;44597;-78
2022/09/03 08:15:07;;;;;;;;;;;;;;;30.17;28.39;100515.97;5394823;32;35069;-76
2022/09/03 08:18:09;;;;;;;;;;;;;;;28.71;30.50;100522.25;5406553;32;35976;-78
2022/09/03 08:21:14;;;;;;;;;;;;;;;29.11;30.18;100521.25;5386830;32;34837;-75
2022/09/03 08:24:18;;;;;;;;;;;;;;;28.26;31.50;100524.50;5395162;32;34895;-77
2022/09/03 08:27:24;;;;;;;;;;;;;;;27.30;33.44;100520.72;5398547;32;34315;-77
2022/09/03 08:30:26;;;;;;;;;;;;;;;30.39;28.09;100514.22;5394816;32;34655;-77
2022/09/03 08:33:37;;;;;;;;;;;;;;;28.19;30.68;100512.69;5412275;32;43324;-76
2022/09/03 08:36:43;;;;;;;;;;;;;;;27.73;31.72;100517.78;5402001;32;35145;-78
2022/09/03 08:39:45;;;;;;;;;;;;;;;31.02;26.99;100512.81;5411490;32;34355;-78
2022/09/03 08:43:17;;;;;;;;;;;;;;;30.69;27.46;100514.25;5395071;32;34881;-77
2022/09/03 08:46:20;;;;;;;;;;;;;;;31.40;26.47;100506.38;5371470;32;34647;-77
2022/09/03 08:49:26;;;;;;;;;;;;;;;27.48;32.46;100516.88;5410060;32;34482;-77
2022/09/03 08:52:31;;;;;;;;;;;;;;;31.04;27.43;100512.63;5395277;32;44603;-77
2022/09/03 08:55:35;;;;;;;;;;;;;;;31.80;25.91;100505.75;5396770;32;36492;-77
2022/09/03 08:58:43;;;;;;;;;;;;;;;30.83;26.96;100518.00;5393855;32;34947;-78
2022/09/03 09:01:54;;;;;;;;;;;;;;;30.92;27.16;100511.44;5381293;32;34836;-77
2022/09/03 09:05:04;;;;;;;;;;;;;;;31.16;26.69;100510.25;5386733;32;33720;-77
2022/09/03 09:08:20;;;;;;;;;;;;;;;29.75;28.92;100505.63;5389779;32;35224;-79
2022/09/03 09:11:22;;;;;;;;;;;;;;;32.24;25.73;100499.22;5416172;32;37693;-76
2022/09/03 09:14:27;;;;;;;;;;;;;;;32.40;24.67;100497.28;5394342;32;34948;-76
2022/09/03 09:17:51;;;;;;;;;;;;;;;32.19;25.21;100487.25;5391181;32;46974;-75
2022/09/03 09:21:06;;;;;;;;;;;;;;;31.10;26.22;100497.44;5404614;32;37395;-79
2022/09/03 09:24:10;;;;;;;;;;;;;;;32.04;24.83;100490.09;5392442;32;34546;-78
2022/09/03 09:27:16;;;;;;;;;;;;;;;31.71;25.26;100493.34;5410607;32;35983;-78
2022/09/03 09:30:18;;;;;;;;;;;;;;;32.58;24.62;100492.97;5394235;32;34868;-78
2022/09/03 09:33:21;;;;;;;;;;;;;;;31.51;26.34;100487.72;5400374;32;34836;-77
2022/09/03 09:36:23;;;;;;;;;;;;;;;32.87;24.22;100480.19;5403536;32;35511;-78
2022/09/03 09:39:25;;;;;;;;;;;;;;;32.92;24.02;100483.12;5391957;32;34979;-76
2022/09/03 09:42:32;;;;;;;;;;;;;;;32.57;24.27;100483.12;5399580;32;44354;-79
2022/09/03 09:45:36;;;;;;;;;;;;;;;31.93;25.00;100482.47;5392310;32;36365;-79
2022/09/03 09:48:39;;;;;;;;;;;;;;;32.25;25.12;100481.03;5410839;32;34407;-77
2022/09/03 09:51:41;;;;;;;;;;;;;;;34.95;21.87;100487.16;5374814;32;35662;-77
2022/09/03 09:54:47;;;;;;;;;;;;;;;33.64;23.33;100485.22;5398918;32;34825;-80
2022/09/03 09:57:52;;;;;;;;;;;;;;;34.76;21.75;100483.44;5414578;32;34346;-77
2022/09/03 10:00:58;;;;;;;;;;;;;;;34.43;22.01;100484.37;5388752;32;35351;-77
2022/09/03 10:04:08;;;;;;;;;;;;;;;33.47;23.17;100480.38;5398671;32;45921;-79
2022/09/03 10:07:20;;;;;;;;;;;;;;;35.64;20.49;100471.84;5403798;32;34627;-79
2022/09/03 10:10:22;;;;;;;;;;;;;;;33.37;23.71;100478.03;5410341;32;35216;-77
2022/09/03 10:13:33;;;;;;;;;;;;;;;34.06;22.35;100477.69;5387286;32;35448;-77
2022/09/03 10:16:36;;;;;;;;;;;;;;;32.60;23.58;100487.34;5396273;32;45349;-78
2022/09/03 10:20:26;;;;;;;;;;;;;;;31.74;25.12;100487.50;5416342;32;34903;-77
2022/09/03 10:23:28;;;;;;;;;;;;;;;29.91;27.41;100485.69;5388251;32;35575;-76
2022/09/03 10:26:31;;;;;;;;;;;;;;;31.13;25.80;100489.78;5390610;32;44466;-78
2022/09/03 10:29:33;;;;;;;;;;;;;;;29.54;28.33;100486.50;5408064;32;34858;-76
2022/09/03 10:32:58;;;;;;;;;;;;;;;30.09;27.76;100482.66;5384140;32;34763;-77
2022/09/03 10:36:05;;;;;;;;;;;;;;;28.49;30.35;100486.84;5411103;32;47362;-78
2022/09/03 10:39:12;;;;;;;;;;;;;;;29.05;29.78;100492.22;5394679;32;34508;-77
2022/09/03 10:42:34;;;;;;;;;;;;;;;27.94;31.02;100484.03;5401799;32;34854;-76
2022/09/03 10:45:39;;;;;;;;;;;;;;;28.64;30.47;100483.41;5392613;32;46588;-77
2022/09/03 10:48:49;;;;;;;;;;;;;;;28.22;30.87;100487.22;5398559;32;35212;-79
2022/09/03 10:52:00;;;;;;;;;;;;;;;27.53;32.33;100471.34;5399490;32;36612;-78
2022/09/03 10:55:05;;;;;;;;;;;;;;;27.76;32.59;100479.66;5374088;32;47201;-76
2022/09/03 10:58:07;;;;;;;;;;;;;;;27.15;32.79;100470.09;5394041;32;35093;-77
2022/09/03 11:01:12;;;;;;;;;;;;;;;27.09;33.09;100459.97;5398481;32;36708;-78
2022/09/03 11:04:19;;;;;;;;;;;;;;;27.86;31.65;100462.44;5367982;32;35405;-79
2022/09/03 11:07:22;;;;;;;;;;;;;;;27.94;31.44;100460.56;5416359;32;35698;-79
2022/09/03 11:10:28;;;;;;;;;;;;;;;28.34;31.02;100450.72;5390536;32;34666;-77
2022/09/03 11:13:34;;;;;;;;;;;;;;;29.28;28.85;100454.34;5413040;32;44603;-77
2022/09/03 11:16:41;;;;;;;;;;;;;;;27.96;30.76;100455.00;5402343;32;35435;-77
2022/09/03 11:19:50;;;;;;;;;;;;;;;28.40;29.44;100455.41;5392587;32;35240;-78
2022/09/03 11:22:53;;;;;;;;;;;;;;;28.43;29.17;100455.09;5404746;32;35700;-77
2022/09/03 11:25:55;;;;;;;;;;;;;;;28.62;28.88;100453.00;5395595;32;35332;-77
2022/09/03 11:28:59;;;;;;;;;;;;;;;27.92;29.94;100454.50;5410022;32;44010;-77
2022/09/03 11:32:06;;;;;;;;;;;;;;;29.31;27.59;100459.41;5394293;32;35549;-76
2022/09/03 11:35:15;;;;;;;;;;;;;;;29.67;26.52;100457.78;5401467;32;35563;-78
2022/09/03 11:38:20;;;;;;;;;;;;;;;33.42;21.56;100449.12;5408635;32;35121;-77
2022/09/03 11:41:22;;;;;;;;;;;;;;;34.70;19.33;100451.53;5389607;32;35187;-78
2022/09/03 11:44:24;;;;;;;;;;;;;;;33.21;20.94;100443.84;5412228;32;36787;-77
2022/09/03 11:47:39;;;;;;;;;;;;;;;32.29;21.33;100447.81;5397748;32;34930;-78
2022/09/03 11:50:49;;;;;;;;;;;;;;;29.57;25.09;100449.09;5406575;32;34749;-77
2022/09/03 11:53:55;;;;;;;;;;;;;;;30.17;23.83;100450.91;5392184;32;36145;-77
2022/09/03 11:57:05;;;;;;;;;;;;;;;29.36;24.18;100457.00;5380068;32;45901;-76
2022/09/03 12:00:16;;;;;;;;;;;;;;;30.08;24.78;100443.87;5409342;32;35196;-77
2022/09/03 12:03:20;;;;;;;;;;;;;;;28.60;27.51;100456.72;5377676;32;35406;-77
2022/09/03 12:06:25;;;;;;;;;;;;;;;31.42;23.81;100445.41;5395297;32;35324;-78
2022/09/03 12:09:33;;;;;;;;;;;;;;;31.21;24.12;100448.94;5384686;32;43416;-77
2022/09/03 12:12:38;;;;;;;;;;;;;;;32.70;22.37;100449.72;5384712;32;35201;-78
2022/09/03 12:15:58;;;;;;;;;;;;;;;33.68;21.20;100450.19;5409379;32;35052;-78
2022/09/03 12:19:03;;;;;;;;;;;;;;;36.69;18.00;100436.31;5374355;32;44549;-78
2022/09/03 12:22:05;;;;;;;;;;;;;;;33.94;20.49;100446.66;5409171;32;34677;-78
2022/09/03 12:25:11;;;;;;;;;;;;;;;37.19;16.80;100438.84;5393460;32;34787;-78
2022/09/03 12:28:18;;;;;;;;;;;;;;;34.03;19.58;100441.84;5397415;32;36069;-78
2022/09/03 12:31:24;;;;;;;;;;;;;;;34.33;19.18;100439.44;5404446;32;34456;-78
2022/09/03 12:34:26;;;;;;;;;;;;;;;32.00;21.87;100443.41;5394241;32;34812;-78
2022/09/03 12:37:32;;;;;;;;;;;;;;;31.32;23.04;100436.75;5411331;32;44649;-78
2022/09/03 12:40:54;;;;;;;;;;;;;;;31.24;23.43;100428.75;5394198;32;36174;-77
2022/09/03 12:44:18;;;;;;;;;;;;;;;31.48;23.27;100432.94;5390616;32;35304;-78
2022/09/03 12:47:23;;;;;;;;;;;;;;;32.30;22.22;100425.00;5406748;32;35791;-79
2022/09/03 12:50:41;;;;;;;;;;;;;;;34.09;20.12;100428.19;5399641;32;34827;-76
2022/09/03 12:53:50;;;;;;;;;;;;;;;33.12;20.79;100421.41;5398846;32;34993;-78
2022/09/03 12:56:56;;;;;;;;;;;;;;;34.40;19.41;100424.75;5379590;32;35999;-79
2022/09/03 12:59:59;;;;;;;;;;;;;;;32.34;21.91;100426.31;5398791;32;44691;-79
2022/09/03 13:03:05;;;;;;;;;;;;;;;31.49;23.33;100435.47;5378118;32;34738;-78
2022/09/03 13:06:09;;;;;;;;;;;;;;;31.16;23.51;100418.81;5374503;32;34988;-79
2022/09/03 13:09:10;;;;;;;;;;;;;;;32.02;22.58;100427.78;5413061;32;35138;-77
2022/09/03 13:12:23;;;;;;;;;;;;;;;30.95;23.61;100424.22;5393486;32;36409;-77
2022/09/03 13:15:26;;;;;;;;;;;;;;;29.23;26.25;100437.78;5409199;32;35035;-77
2022/09/03 13:18:49;;;;;;;;;;;;;;;27.21;29.43;100434.38;5386727;32;45026;-77
2022/09/03 13:22:09;;;;;;;;;;;;;;;28.18;28.11;100421.84;5382661;32;35155;-78
2022/09/03 13:25:30;;;;;;;;;;;;;;;28.31;28.43;100418.62;5410912;32;34404;-77
2022/09/03 13:28:55;;;;;;;;;;;;;;;27.49;29.67;100423.25;5392654;32;44533;-77
2022/09/03 13:31:59;;;;;;;;;;;;;;;27.04;30.62;100426.38;5391679;32;35428;-78
2022/09/03 13:35:25;;;;;;;;;;;;;;;26.78;31.01;100421.09;5409138;32;44549;-78
2022/09/03 13:38:42;;;;;;;;;;;;;;;27.82;29.25;100421.41;5391817;32;44756;-77
2022/09/03 13:41:48;;;;;;;;;;;;;;;26.31;31.74;100414.31;5418208;32;34698;-77
2022/09/03 13:45:26;;;;;;;;;;;;;;;27.39;29.51;100409.94;5394587;32;35095;-77
2022/09/03 13:51:52;;;;;;;;;;;;;;;28.26;27.95;100413.72;5405816;32;34756;-78
2022/09/03 13:54:55;;;;;;;;;;;;;;;26.60;30.34;100421.19;5373794;32;34715;-78
2022/09/03 13:57:56;;;;;;;;;;;;;;;27.00;30.16;100415.09;5408756;32;35045;-78
2022/09/03 14:01:22;;;;;;;;;;;;;;;26.55;30.62;100416.31;5390005;32;45356;-78
2022/09/03 14:04:29;;;;;;;;;;;;;;;27.19;29.62;100412.12;5373300;32;35741;-77
2022/09/03 14:08:07;;;;;;;;;;;;;;;27.63;28.62;100406.41;5406648;32;44566;-77
2022/09/03 14:11:29;;;;;;;;;;;;;;;26.92;29.92;100405.12;5334393;32;34988;-79
2022/09/03 14:14:36;;;;;;;;;;;;;;;27.80;28.86;100402.69;5368032;32;44708;-77
2022/09/03 14:17:58;;;;;;;;;;;;;;;27.49;28.46;100404.34;5412680;32;35087;-76
2022/09/03 14:21:01;;;;;;;;;;;;;;;26.93;29.43;100396.03;5397296;32;44526;-78
2022/09/03 14:24:09;;;;;;;;;;;;;;;27.77;28.58;100405.72;5407291;32;35239;-76
2022/09/03 14:27:11;;;;;;;;;;;;;;;27.18;28.80;100398.81;5377359;32;34765;-77
2022/09/03 14:30:16;;;;;;;;;;;;;;;27.16;28.87;100390.00;5376798;32;35362;-77
2022/09/03 14:33:27;;;;;;;;;;;;;;;26.63;29.71;100388.53;5403613;32;37014;-77
2022/09/03 14:36:36;;;;;;;;;;;;;;;27.54;27.78;100392.03;5393335;32;44594;-78
2022/09/03 14:39:54;;;;;;;;;;;;;;;27.57;27.98;100395.44;5401613;32;36178;-76
2022/09/03 14:43:02;;;;;;;;;;;;;;;26.60;29.77;100396.91;5388145;32;35055;-76
2022/09/03 14:46:19;;;;;;;;;;;;;;;26.67;29.66;100389.91;5366702;32;924494;-79
2022/09/03 14:49:36;;;;;;;;;;;;;;;27.82;27.64;100386.28;5408254;32;34985;-76
2022/09/03 14:52:45;;;;;;;;;;;;;;;27.65;28.12;100387.31;5386487;32;36301;-77
2022/09/03 14:55:47;;;;;;;;;;;;;;;26.72;28.88;100382.97;5391259;32;35911;-77
2022/09/03 14:58:57;;;;;;;;;;;;;;;27.31;28.06;100380.25;5391373;32;35915;-76
2022/09/03 15:02:15;;;;;;;;;;;;;;;27.12;28.54;100380.59;5384046;32;44606;-78
2022/09/03 15:05:32;;;;;;;;;;;;;;;26.84;29.81;100385.38;5387925;32;35227;-78
2022/09/03 15:08:38;;;;;;;;;;;;;;;26.03;31.40;100389.41;5382399;32;44331;-77
2022/09/03 15:11:59;;;;;;;;;;;;;;;26.26;31.31;100397.78;5396731;32;34970;-78
2022/09/03 15:15:05;;;;;;;;;;;;;;;26.41;30.08;100401.59;5407400;32;44098;-78
2022/09/03 15:18:28;;;;;;;;;;;;;;;27.50;28.70;100396.13;5393658;32;35501;-77
2022/09/03 15:21:39;;;;;;;;;;;;;;;26.75;29.90;100403.37;5409154;32;44724;-77
2022/09/03 15:24:44;;;;;;;;;;;;;;;26.97;29.79;100396.53;5395142;32;35038;-78
2022/09/03 15:27:59;;;;;;;;;;;;;;;28.04;27.53;100391.00;5421932;32;35329;-79
2022/09/03 15:31:04;;;;;;;;;;;;;;;27.71;27.71;100382.13;5396404;32;45227;-78
2022/09/03 15:34:18;;;;;;;;;;;;;;;27.55;28.28;100384.78;5394483;32;34835;-78
2022/09/03 15:37:22;;;;;;;;;;;;;;;26.95;29.53;100393.16;5411333;32;34890;-77
2022/09/03 15:40:31;;;;;;;;;;;;;;;27.78;28.32;100385.81;5393682;32;35103;-77
2022/09/03 15:43:34;;;;;;;;;;;;;;;26.69;30.43;100387.88;5413561;32;43164;-77
2022/09/03 15:46:45;;;;;;;;;;;;;;;27.31;29.63;100384.78;5405679;32;37077;-77
2022/09/03 15:49:47;;;;;;;;;;;;;;;26.54;30.67;100381.44;5392884;32;34551;-77
2022/09/03 15:52:55;;;;;;;;;;;;;;;27.16;29.77;100390.84;5412181;32;35701;-79
2022/09/03 15:56:15;;;;;;;;;;;;;;;26.72;30.85;100396.47;5375827;32;34982;-77
2022/09/03 15:59:17;;;;;;;;;;;;;;;26.48;31.50;100393.69;5410114;32;35319;-76
2022/09/03 16:02:25;;;;;;;;;;;;;;;26.66;31.09;100390.88;5363333;32;34499;-77